Time;durP1;ratioP1;P1;durP2;ratioP2;P2;SDS_P1;SDS_P2;PMS_P1;PMS_P2;Temp;Humidity;BMP_temperature;BMP_pressure;BME280_temperature;BME280_humidity;BME280_pressure;Samples;Min_cycle;Max_cycle;Signal;HPM_P1;HPM_P2
2022/03/05 00:01:56;;;;;;;23.25;11.82;;;-1.30;99.90;;;;;;5132238;27;20396;-91
2022/03/05 00:04:21;;;;;;;22.92;11.35;;;-1.30;99.90;;;;;;5098244;28;20397;-91
2022/03/05 00:06:49;;;;;;;21.48;11.40;;;-1.30;99.90;;;;;;5148920;27;20046;-91
2022/03/05 00:09:17;;;;;;;23.02;12.32;;;-1.30;99.90;;;;;;5097477;28;20521;-90
2022/03/05 00:11:43;;;;;;;24.50;12.02;;;-1.30;99.90;;;;;;5114923;28;20043;-91
2022/03/05 00:14:09;;;;;;;19.65;11.63;;;-1.30;99.90;;;;;;5114820;28;20530;-91
2022/03/05 00:16:35;;;;;;;21.90;11.75;;;-1.30;99.90;;;;;;5114615;28;20055;-90
2022/03/05 00:19:01;;;;;;;25.23;11.63;;;-1.30;99.90;;;;;;5114717;28;20055;-91
2022/03/05 00:21:26;;;;;;;22.80;11.73;;;-1.30;99.90;;;;;;5131551;27;20473;-91
2022/03/05 00:23:52;;;;;;;21.95;10.98;;;-1.30;99.90;;;;;;5114692;28;20392;-90
2022/03/05 00:26:18;;;;;;;21.65;12.23;;;-1.30;99.90;;;;;;5114784;28;20134;-91
2022/03/05 00:28:43;;;;;;;24.50;11.73;;;-1.30;99.90;;;;;;5131430;27;20036;-91
2022/03/05 00:31:09;;;;;;;26.55;11.57;;;-1.30;99.90;;;;;;5131287;27;20065;-90
2022/03/05 00:33:35;;;;;;;22.58;11.32;;;-1.30;99.90;;;;;;5114218;28;20397;-90
2022/03/05 00:36:01;;;;;;;23.27;11.05;;;-1.30;99.90;;;;;;5131554;27;20081;-91
2022/03/05 00:38:27;;;;;;;23.70;11.40;;;-1.30;99.90;;;;;;5114424;28;20044;-91
2022/03/05 00:40:52;;;;;;;24.10;11.13;;;-1.30;99.90;;;;;;5131536;27;20051;-90
2022/03/05 00:43:18;;;;;;;23.73;10.40;;;-1.30;99.90;;;;;;5114275;28;20130;-91
2022/03/05 00:45:44;;;;;;;20.98;11.25;;;-1.30;99.90;;;;;;5113999;28;20151;-90
2022/03/05 00:48:09;;;;;;;23.23;11.00;;;-1.30;99.90;;;;;;5114043;28;20052;-91
2022/03/05 00:50:35;;;;;;;23.95;11.23;;;-1.30;99.90;;;;;;5114295;28;20044;-90
2022/03/05 00:53:01;;;;;;;23.83;11.15;;;-1.30;99.90;;;;;;5131201;27;20043;-90
2022/03/05 00:55:26;;;;;;;20.75;9.85;;;-1.30;99.90;;;;;;5148658;27;20047;-90
2022/03/05 00:57:52;;;;;;;21.23;10.65;;;-1.30;99.90;;;;;;5113440;28;20075;-91
2022/03/05 01:00:18;;;;;;;20.70;10.82;;;-1.30;99.90;;;;;;5130824;27;20483;-90
2022/03/05 01:02:43;;;;;;;22.52;10.50;;;-1.40;99.90;;;;;;5113825;28;20043;-90
2022/03/05 01:05:10;;;;;;;20.17;10.88;;;-1.40;99.90;;;;;;5113872;28;20077;-91
2022/03/05 01:07:36;;;;;;;23.73;11.07;;;-1.30;99.90;;;;;;5114004;28;20461;-91
2022/03/05 01:10:05;;;;;;;21.23;10.68;;;-1.30;99.90;;;;;;5130326;27;20104;-91
2022/03/05 01:12:31;;;;;;;22.33;10.70;;;-1.40;99.90;;;;;;5113707;28;20043;-91
2022/03/05 01:14:57;;;;;;;22.17;10.10;;;-1.40;99.90;;;;;;5130666;27;20054;-90
2022/03/05 01:17:23;;;;;;;25.50;10.38;;;-1.40;99.90;;;;;;5113850;28;20098;-90
2022/03/05 01:19:48;;;;;;;20.88;10.60;;;-1.40;99.90;;;;;;5112442;28;20082;-90
2022/03/05 01:22:14;;;;;;;23.98;10.85;;;-1.40;99.90;;;;;;5113942;28;20086;-90
2022/03/05 01:24:40;;;;;;;25.15;11.38;;;-1.50;99.90;;;;;;5113503;28;20040;-91
2022/03/05 01:27:06;;;;;;;21.85;10.45;;;-1.40;99.90;;;;;;5130654;27;20066;-90
2022/03/05 01:29:31;;;;;;;20.63;9.98;;;-1.50;99.90;;;;;;5112418;28;20081;-91
2022/03/05 01:31:57;;;;;;;24.02;11.27;;;-1.50;99.90;;;;;;5113372;28;20126;-90
2022/03/05 01:34:23;;;;;;;21.58;10.18;;;-1.40;99.90;;;;;;5113461;28;20087;-90
2022/03/05 01:36:48;;;;;;;24.83;9.95;;;-1.40;99.90;;;;;;5113353;28;20358;-90
2022/03/05 01:39:15;;;;;;;20.27;10.30;;;-1.50;99.90;;;;;;5113417;28;20070;-90
2022/03/05 01:41:41;;;;;;;22.35;11.15;;;-0.90;99.90;;;;;;5130526;27;20493;-91
2022/03/05 01:44:06;;;;;;;22.27;10.35;;;-1.50;99.90;;;;;;5113446;28;20050;-90
2022/03/05 01:46:37;;;;;;;21.40;9.95;;;-0.90;99.90;;;;;;5130321;27;20054;-90
2022/03/05 01:49:09;;;;;;;23.98;11.43;;;-1.50;99.90;;;;;;5095755;28;20035;-90
2022/03/05 01:51:36;;;;;;;19.02;10.00;;;-1.50;99.90;;;;;;5113125;28;20442;-90
2022/03/05 01:54:02;;;;;;;21.50;10.63;;;-1.50;99.90;;;;;;5112898;28;20039;-91
2022/03/05 01:56:29;;;;;;;21.65;10.07;;;-1.50;99.90;;;;;;5095961;28;20039;-90
2022/03/05 01:58:55;;;;;;;22.17;10.05;;;-1.60;99.90;;;;;;5112914;28;20047;-91
2022/03/05 02:01:22;;;;;;;20.65;10.43;;;-1.60;99.90;;;;;;5113064;28;20052;-91
2022/03/05 02:03:48;;;;;;;20.33;11.30;;;-1.70;99.90;;;;;;5095901;28;20472;-91
2022/03/05 02:06:14;;;;;;;20.67;10.77;;;-1.70;99.90;;;;;;5113107;28;20047;-91
2022/03/05 02:08:40;;;;;;;26.73;10.85;;;-1.80;99.90;;;;;;5113227;28;20084;-91
2022/03/05 02:11:05;;;;;;;19.65;10.55;;;-1.30;99.90;;;;;;5096050;28;20160;-91
2022/03/05 02:13:31;;;;;;;23.77;10.23;;;-1.80;99.90;;;;;;5112851;28;20043;-91
2022/03/05 02:15:57;;;;;;;20.77;10.40;;;-1.90;99.90;;;;;;5129944;27;20047;-92
2022/03/05 02:18:24;;;;;;;22.08;11.20;;;-1.90;99.90;;;;;;5112789;28;20039;-91
2022/03/05 02:20:51;;;;;;;20.33;11.05;;;-1.90;99.90;;;;;;5112307;28;20054;-91
2022/03/05 02:23:16;;;;;;;22.15;10.63;;;-1.90;99.90;;;;;;5112977;28;20055;-91
2022/03/05 02:25:59;;;;;;;21.40;9.70;;;-1.90;99.90;;;;;;5112870;28;20160;-90
2022/03/05 02:28:27;;;;;;;21.67;10.00;;;-2.00;99.90;;;;;;5112390;28;20048;-91
2022/03/05 02:30:53;;;;;;;21.45;10.38;;;-2.00;99.90;;;;;;5112162;28;20050;-91
2022/03/05 02:33:20;;;;;;;20.95;10.30;;;-1.80;99.90;;;;;;5112312;28;20043;-91
2022/03/05 02:35:46;;;;;;;19.50;9.35;;;-2.00;99.90;;;;;;5096001;28;20044;-91
2022/03/05 02:38:16;;;;;;;25.88;11.25;;;-2.00;99.90;;;;;;5096099;28;20441;-91
2022/03/05 02:40:43;;;;;;;18.58;9.88;;;-2.00;99.90;;;;;;5095465;28;20377;-91
2022/03/05 02:43:10;;;;;;;20.77;10.20;;;-2.00;99.90;;;;;;5113002;28;20051;-90
2022/03/05 02:45:36;;;;;;;23.88;10.50;;;-2.00;99.90;;;;;;5112326;28;20485;-91
2022/03/05 02:48:04;;;;;;;20.52;10.38;;;-2.10;99.90;;;;;;5112790;28;20044;-91
2022/03/05 02:50:31;;;;;;;22.25;10.95;;;-2.10;99.90;;;;;;5095531;28;20047;-91
2022/03/05 02:52:56;;;;;;;21.58;10.68;;;-2.10;99.90;;;;;;5112560;28;20537;-91
2022/03/05 02:55:23;;;;;;;26.17;10.85;;;-2.10;99.90;;;;;;5146874;27;20185;-91
2022/03/05 02:57:48;;;;;;;20.25;10.25;;;-2.10;99.90;;;;;;5095656;28;20047;-92
2022/03/05 03:00:17;;;;;;;21.73;10.38;;;-2.10;99.90;;;;;;5095277;28;20039;-92
2022/03/05 03:02:46;;;;;;;23.73;10.45;;;-2.20;99.90;;;;;;5095416;28;20047;-91
2022/03/05 03:05:14;;;;;;;20.75;10.15;;;-2.00;99.90;;;;;;5112785;28;20136;-92
2022/03/05 03:07:40;;;;;;;23.75;10.07;;;-1.90;99.90;;;;;;5095513;28;20181;-91
2022/03/05 03:10:07;;;;;;;22.77;10.23;;;-2.30;99.90;;;;;;5129192;28;20031;-91
2022/03/05 03:12:33;;;;;;;24.10;10.38;;;-2.20;99.90;;;;;;5112474;28;20134;-91
2022/03/05 03:14:58;;;;;;;19.95;9.75;;;-1.90;99.90;;;;;;5095434;28;20048;-91
2022/03/05 03:17:24;;;;;;;22.23;10.73;;;-2.20;99.90;;;;;;5112540;28;20048;-91
2022/03/05 03:19:50;;;;;;;20.98;10.05;;;-2.30;99.90;;;;;;5129262;28;20051;-91
2022/03/05 03:22:16;;;;;;;22.88;9.57;;;-2.30;99.90;;;;;;5129546;28;20055;-92
2022/03/05 03:24:44;;;;;;;22.92;10.30;;;-2.30;99.90;;;;;;5112397;28;20070;-92
2022/03/05 03:27:10;;;;;;;20.85;9.13;;;-2.30;99.90;;;;;;5129499;28;20417;-91
2022/03/05 03:29:36;;;;;;;21.13;10.45;;;-2.40;99.90;;;;;;5112097;28;20047;-91
2022/03/05 03:32:03;;;;;;;22.17;10.05;;;-2.20;99.90;;;;;;5112279;28;20389;-91
2022/03/05 03:34:28;;;;;;;21.88;9.93;;;-2.40;99.90;;;;;;5095634;28;20048;-92
2022/03/05 03:36:54;;;;;;;21.65;10.30;;;-2.30;99.90;;;;;;5112112;28;20043;-91
2022/03/05 03:39:20;;;;;;;18.55;8.65;;;-2.50;99.90;;;;;;5129674;28;20055;-91
2022/03/05 03:41:45;;;;;;;23.15;10.20;;;-2.60;99.90;;;;;;5112364;28;20059;-91
2022/03/05 03:44:11;;;;;;;19.55;9.73;;;-2.50;99.90;;;;;;5132904;27;20051;-91
2022/03/05 03:46:37;;;;;;;22.58;9.88;;;-2.60;99.90;;;;;;5115484;28;20058;-93
2022/03/05 03:49:03;;;;;;;19.77;8.90;;;-2.60;99.90;;;;;;5115718;28;20169;-92
2022/03/05 03:51:29;;;;;;;22.75;9.57;;;-2.60;99.90;;;;;;5115712;28;20040;-91
2022/03/05 03:53:54;;;;;;;17.73;8.82;;;-2.60;99.90;;;;;;5098491;28;20503;-91
2022/03/05 03:56:20;;;;;;;20.77;9.52;;;-2.60;99.90;;;;;;5132733;27;20052;-91
2022/03/05 03:58:46;;;;;;;22.25;9.82;;;-2.60;99.90;;;;;;5115732;28;20109;-91
2022/03/05 04:01:11;;;;;;;24.77;9.93;;;-2.40;99.90;;;;;;5098523;28;20090;-91
2022/03/05 04:03:37;;;;;;;21.42;9.13;;;-2.20;99.90;;;;;;5133296;27;20082;-91
2022/03/05 04:06:03;;;;;;;22.05;9.98;;;-2.60;99.90;;;;;;5115554;28;20042;-91
2022/03/05 04:08:44;;;;;;;22.25;9.68;;;-2.00;99.90;;;;;;5115326;28;20054;-91
2022/03/05 04:11:11;;;;;;;22.60;10.50;;;-2.50;99.90;;;;;;5132661;27;20050;-91
2022/03/05 04:13:37;;;;;;;19.80;9.00;;;-2.60;99.90;;;;;;5098177;28;20090;-91
2022/03/05 04:16:04;;;;;;;19.45;9.65;;;-2.60;99.90;;;;;;5114963;28;20039;-91
2022/03/05 04:18:30;;;;;;;23.05;10.00;;;-2.60;99.90;;;;;;5115447;28;20389;-91
2022/03/05 04:20:56;;;;;;;24.63;9.98;;;-2.60;99.90;;;;;;5097934;28;20085;-92
2022/03/05 04:23:22;;;;;;;22.05;10.00;;;-2.10;99.90;;;;;;5098190;28;20040;-91
2022/03/05 04:25:47;;;;;;;21.13;9.60;;;-2.60;99.90;;;;;;5115230;28;20040;-91
2022/03/05 04:28:13;;;;;;;23.00;9.25;;;-2.70;99.90;;;;;;5115167;28;20044;-93
2022/03/05 04:30:39;;;;;;;22.83;9.63;;;-2.70;99.90;;;;;;5131908;27;20477;-92
2022/03/05 04:33:05;;;;;;;21.35;9.40;;;-2.70;99.90;;;;;;5132085;27;20047;-92
2022/03/05 04:35:30;;;;;;;19.70;9.00;;;-2.70;99.90;;;;;;5098062;28;20396;-92
2022/03/05 04:37:56;;;;;;;22.67;9.02;;;-2.70;99.90;;;;;;5114667;28;20040;-92
2022/03/05 04:40:22;;;;;;;21.08;9.15;;;-2.70;99.90;;;;;;5097996;28;20054;-91
2022/03/05 04:42:49;;;;;;;21.35;9.35;;;-2.60;99.90;;;;;;5097631;28;20114;-92
2022/03/05 04:45:15;;;;;;;22.38;9.65;;;-2.40;99.90;;;;;;5097688;28;20054;-91
2022/03/05 04:47:41;;;;;;;25.30;9.98;;;-2.70;99.90;;;;;;5114942;28;20043;-92
2022/03/05 04:50:09;;;;;;;22.92;9.73;;;-2.70;99.90;;;;;;5114595;28;20045;-91
2022/03/05 04:52:34;;;;;;;21.92;9.05;;;-2.70;99.90;;;;;;5114851;28;20055;-92
2022/03/05 04:55:01;;;;;;;23.17;9.85;;;-2.70;99.90;;;;;;5097469;28;20052;-92
2022/03/05 04:57:27;;;;;;;20.55;9.15;;;-2.40;99.90;;;;;;5114371;28;20131;-92
2022/03/05 04:59:52;;;;;;;22.92;9.68;;;-2.70;99.90;;;;;;5114533;28;20100;-91
2022/03/05 05:02:18;;;;;;;21.35;8.88;;;-2.70;99.90;;;;;;5097300;28;20043;-91
2022/03/05 05:04:44;;;;;;;21.83;10.23;;;-2.70;99.90;;;;;;5097184;28;20432;-92
2022/03/05 05:07:10;;;;;;;24.85;10.00;;;-2.70;99.90;;;;;;5114702;28;20043;-91
2022/03/05 05:09:36;;;;;;;30.25;10.98;;;-2.70;99.90;;;;;;5131279;27;20042;-92
2022/03/05 05:12:01;;;;;;;24.42;10.13;;;-2.10;99.90;;;;;;5131381;27;20134;-91
2022/03/05 05:14:27;;;;;;;21.58;9.60;;;-2.80;99.90;;;;;;5096726;28;20547;-92
2022/03/05 05:16:53;;;;;;;25.98;10.13;;;-2.80;99.90;;;;;;5113778;28;20047;-92
2022/03/05 05:19:24;;;;;;;21.55;9.48;;;-2.50;99.90;;;;;;5113980;28;20060;-92
2022/03/05 05:21:55;;;;;;;22.73;9.45;;;-2.80;99.90;;;;;;5097050;28;20409;-91
2022/03/05 05:24:21;;;;;;;23.55;10.23;;;-2.60;99.90;;;;;;5096748;28;20051;-92
2022/03/05 05:26:47;;;;;;;22.90;9.40;;;-2.90;99.90;;;;;;5096744;28;20557;-92
2022/03/05 05:29:13;;;;;;;25.02;10.30;;;-2.90;99.90;;;;;;5096580;28;20039;-91
2022/03/05 05:31:38;;;;;;;22.00;9.32;;;-2.90;99.90;;;;;;5148321;27;20047;-91
2022/03/05 05:34:04;;;;;;;22.55;10.32;;;-3.00;99.90;;;;;;5113864;28;20047;-91
2022/03/05 05:36:30;;;;;;;27.08;10.13;;;-2.90;99.90;;;;;;5113903;28;20501;-91
2022/03/05 05:38:56;;;;;;;21.05;9.40;;;-3.00;99.90;;;;;;5148210;27;20442;-92
2022/03/05 05:41:21;;;;;;;25.52;10.20;;;-2.90;99.90;;;;;;5096763;28;20388;-91
2022/03/05 05:43:47;;;;;;;26.67;10.48;;;-2.90;99.90;;;;;;5130729;27;20036;-91
2022/03/05 05:46:13;;;;;;;28.45;9.63;;;-2.90;99.90;;;;;;5113482;28;20048;-92
2022/03/05 05:48:39;;;;;;;26.35;10.05;;;-2.90;99.90;;;;;;5096695;28;20623;-91
2022/03/05 05:51:05;;;;;;;20.75;8.68;;;-2.90;99.90;;;;;;5130700;27;20074;-91
2022/03/05 05:53:31;;;;;;;20.98;8.90;;;-2.90;99.90;;;;;;5113590;28;20040;-91
2022/03/05 05:55:57;;;;;;;20.33;8.63;;;-3.00;99.90;;;;;;5096625;28;20507;-92
2022/03/05 05:58:22;;;;;;;27.77;11.02;;;-2.50;99.90;;;;;;5130318;27;20044;-91
2022/03/05 06:00:49;;;;;;;20.75;9.80;;;-3.00;99.90;;;;;;5113037;28;20043;-91
2022/03/05 06:03:16;;;;;;;23.60;8.60;;;-3.00;99.90;;;;;;5095831;28;20047;-92
2022/03/05 06:05:41;;;;;;;22.33;9.57;;;-2.60;99.90;;;;;;5095469;28;20101;-91
2022/03/05 06:08:07;;;;;;;22.70;8.77;;;-3.00;99.90;;;;;;5096138;28;20051;-91
2022/03/05 06:10:33;;;;;;;25.38;9.30;;;-3.00;99.90;;;;;;5096072;28;20119;-91
2022/03/05 06:12:58;;;;;;;22.23;9.32;;;-3.00;99.90;;;;;;5113068;28;20043;-90
2022/03/05 06:15:24;;;;;;;27.23;9.77;;;-3.10;99.90;;;;;;5091351;28;20080;-90
2022/03/05 06:17:50;;;;;;;25.17;10.20;;;-3.10;99.90;;;;;;5075128;28;20070;-90
2022/03/05 06:20:15;;;;;;;24.30;9.63;;;-3.10;99.90;;;;;;5074949;28;20106;-91
2022/03/05 06:22:42;;;;;;;22.83;9.50;;;-3.10;99.90;;;;;;5092212;28;20052;-90
2022/03/05 06:25:08;;;;;;;21.85;10.23;;;-3.10;99.90;;;;;;5092502;28;20130;-90
2022/03/05 06:27:34;;;;;;;23.85;10.20;;;-3.20;99.90;;;;;;5092290;28;20040;-91
2022/03/05 06:30:00;;;;;;;23.63;10.02;;;-3.10;99.90;;;;;;5091786;28;20089;-90
2022/03/05 06:32:27;;;;;;;27.40;11.68;;;-3.20;99.90;;;;;;5113547;28;20048;-91
2022/03/05 06:35:24;;;;;;;24.83;10.32;;;-3.10;99.90;;;;;;5075184;28;20569;-91
2022/03/05 06:37:50;;;;;;;21.90;9.98;;;-3.10;99.90;;;;;;5075160;28;20131;-90
2022/03/05 06:40:15;;;;;;;24.92;10.50;;;-3.10;99.90;;;;;;5091565;28;20142;-91
2022/03/05 06:42:42;;;;;;;24.73;10.00;;;-3.00;99.90;;;;;;5090817;28;20485;-91
2022/03/05 06:45:08;;;;;;;25.50;10.07;;;-2.90;99.90;;;;;;5091247;28;20101;-91
2022/03/05 06:47:38;;;;;;;25.45;10.00;;;-2.80;99.90;;;;;;5092027;28;20048;-90
2022/03/05 06:50:06;;;;;;;20.83;9.25;;;-2.80;99.90;;;;;;5091448;28;20043;-90
2022/03/05 06:52:50;;;;;;;22.52;9.57;;;-2.70;99.90;;;;;;5075157;28;20087;-90
2022/03/05 06:55:16;;;;;;;18.38;8.48;;;-2.60;99.90;;;;;;5091690;28;20066;-91
2022/03/05 06:57:43;;;;;;;17.70;8.25;;;-2.50;99.90;;;;;;5091412;28;20044;-90
2022/03/05 07:00:11;;;;;;;21.60;9.20;;;-2.40;99.90;;;;;;5091417;28;20048;-90
2022/03/05 07:02:37;;;;;;;19.85;9.05;;;-2.40;99.90;;;;;;5091959;28;20052;-90
2022/03/05 07:05:03;;;;;;;20.10;8.80;;;-2.30;99.90;;;;;;5075019;28;20044;-90
2022/03/05 07:07:47;;;;;;;22.60;8.80;;;-2.20;99.90;;;;;;5091900;28;20560;-90
2022/03/05 07:10:12;;;;;;;18.58;8.32;;;-2.10;99.90;;;;;;5091509;28;20044;-90
2022/03/05 07:12:39;;;;;;;21.95;9.00;;;-2.00;99.90;;;;;;5091796;28;20055;-91
2022/03/05 07:15:06;;;;;;;20.25;8.88;;;-1.90;99.90;;;;;;5091843;28;20077;-90
2022/03/05 07:17:32;;;;;;;19.55;7.85;;;-1.90;99.90;;;;;;5093060;28;20048;-91
2022/03/05 07:19:58;;;;;;;16.90;7.93;;;-1.70;99.90;;;;;;5078768;28;20052;-90
2022/03/05 07:22:23;;;;;;;19.48;8.52;;;-1.40;99.90;;;;;;5112564;28;20101;-91
2022/03/05 07:24:50;;;;;;;20.70;8.80;;;-1.70;99.90;;;;;;5078187;28;20056;-90
2022/03/05 07:27:16;;;;;;;19.85;8.52;;;-1.50;99.90;;;;;;5078622;28;20048;-91
2022/03/05 07:29:43;;;;;;;18.00;7.93;;;-1.50;99.90;;;;;;5095238;28;20051;-90
2022/03/05 07:32:10;;;;;;;19.23;8.65;;;-1.40;99.90;;;;;;5078305;28;20058;-91
2022/03/05 07:34:35;;;;;;;19.65;8.48;;;-1.30;99.90;;;;;;5095468;28;20425;-91
2022/03/05 07:37:01;;;;;;;21.33;8.02;;;-1.20;99.90;;;;;;5095024;28;20040;-91
2022/03/05 07:39:27;;;;;;;18.23;7.80;;;-1.20;99.90;;;;;;5078058;28;20040;-90
2022/03/05 07:41:52;;;;;;;18.77;8.07;;;-1.00;99.90;;;;;;5094613;28;20048;-90
2022/03/05 07:44:18;;;;;;;17.60;8.70;;;-1.00;99.90;;;;;;5095183;28;20047;-91
2022/03/05 07:46:44;;;;;;;16.17;8.43;;;-0.90;99.90;;;;;;5094713;28;20056;-90
2022/03/05 07:49:10;;;;;;;21.73;9.43;;;-0.80;99.90;;;;;;5094893;28;20097;-89
2022/03/05 07:51:36;;;;;;;19.35;8.95;;;-0.70;99.90;;;;;;5077779;28;20413;-90
2022/03/05 07:54:03;;;;;;;21.52;9.80;;;-0.60;99.90;;;;;;5094701;28;20040;-88
2022/03/05 07:56:28;;;;;;;18.02;8.70;;;-0.50;99.90;;;;;;5077698;28;20047;-89
2022/03/05 07:58:54;;;;;;;21.13;9.00;;;-0.50;99.90;;;;;;5094732;28;20381;-89
2022/03/05 08:01:20;;;;;;;18.58;9.05;;;-0.30;99.90;;;;;;5094232;28;20047;-89
2022/03/05 08:03:48;;;;;;;18.13;8.50;;;-0.30;99.90;;;;;;5077901;28;20040;-90
2022/03/05 08:06:14;;;;;;;22.33;9.48;;;-0.20;99.90;;;;;;5128921;27;20383;-92
2022/03/05 08:08:39;;;;;;;21.80;8.95;;;0.10;99.90;;;;;;5111845;28;20032;-91
2022/03/05 08:11:05;;;;;;;18.85;8.85;;;0.50;99.90;;;;;;5128519;27;20042;-91
2022/03/05 08:13:31;;;;;;;18.17;9.05;;;0.10;99.90;;;;;;5094598;28;20044;-91
2022/03/05 08:15:57;;;;;;;20.00;9.20;;;0.20;99.90;;;;;;5128360;27;20123;-91
2022/03/05 08:18:22;;;;;;;18.00;9.18;;;0.30;99.90;;;;;;5094602;28;20044;-90
2022/03/05 08:20:49;;;;;;;22.15;9.77;;;0.40;99.90;;;;;;5128125;27;20063;-90
2022/03/05 08:23:14;;;;;;;20.20;9.15;;;0.50;99.90;;;;;;5111296;28;20060;-90
2022/03/05 08:25:40;;;;;;;19.45;9.55;;;0.60;99.90;;;;;;5093167;28;20048;-90
2022/03/05 08:28:06;;;;;;;20.42;9.30;;;0.70;99.90;;;;;;5093813;28;20098;-90
2022/03/05 08:30:32;;;;;;;22.17;9.85;;;0.80;99.90;;;;;;5093479;28;20043;-90
2022/03/05 08:32:58;;;;;;;21.13;9.63;;;0.90;99.90;;;;;;5128154;27;20164;-90
2022/03/05 08:35:24;;;;;;;20.67;10.57;;;1.00;99.90;;;;;;5110870;28;20052;-90
2022/03/05 08:37:51;;;;;;;22.02;10.23;;;1.10;99.90;;;;;;5094296;28;20053;-90
2022/03/05 08:40:18;;;;;;;23.05;10.30;;;1.10;99.90;;;;;;5093540;28;20485;-90
2022/03/05 08:42:45;;;;;;;21.15;9.35;;;1.20;99.90;;;;;;5076819;28;20047;-90
2022/03/05 08:45:13;;;;;;;23.20;10.68;;;1.30;99.90;;;;;;5127842;27;20074;-90
2022/03/05 08:47:38;;;;;;;25.77;10.80;;;1.40;99.90;;;;;;5076496;28;20067;-90
2022/03/05 08:50:05;;;;;;;24.38;10.88;;;1.60;99.90;;;;;;5093387;28;20047;-90
2022/03/05 08:52:36;;;;;;;29.80;11.38;;;1.50;99.90;;;;;;5076839;28;20040;-89
2022/03/05 08:55:07;;;;;;;23.52;10.60;;;2.20;99.90;;;;;;5076614;28;20455;-90
2022/03/05 08:57:33;;;;;;;25.40;12.07;;;1.70;99.90;;;;;;5076268;28;20051;-90
2022/03/05 08:59:58;;;;;;;24.67;10.73;;;1.80;99.90;;;;;;5110296;28;20055;-89
2022/03/05 09:02:25;;;;;;;23.88;11.52;;;1.80;99.90;;;;;;5093448;28;20051;-89
2022/03/05 09:04:51;;;;;;;21.70;11.60;;;2.00;99.90;;;;;;5093083;28;20078;-89
2022/03/05 09:07:17;;;;;;;23.42;11.75;;;2.10;99.90;;;;;;5092891;28;20051;-89
2022/03/05 09:09:43;;;;;;;23.60;11.60;;;2.10;99.90;;;;;;5109790;28;20051;-89
2022/03/05 09:12:09;;;;;;;22.05;11.55;;;2.30;99.90;;;;;;5092745;28;20490;-90
2022/03/05 09:14:35;;;;;;;27.50;12.57;;;2.40;99.90;;;;;;5076679;28;20111;-90
2022/03/05 09:17:00;;;;;;;27.17;12.13;;;2.50;99.90;;;;;;5093041;28;20083;-90
2022/03/05 09:19:26;;;;;;;30.15;12.80;;;2.60;99.90;;;;;;5093714;28;20048;-92
2022/03/05 09:21:52;;;;;;;24.98;11.90;;;2.90;99.90;;;;;;5077322;28;20439;-91
2022/03/05 09:24:18;;;;;;;23.23;11.38;;;3.90;99.90;;;;;;5093826;28;20063;-91
2022/03/05 09:26:43;;;;;;;23.50;11.77;;;5.30;99.90;;;;;;5076304;28;20056;-92
2022/03/05 09:29:10;;;;;;;22.75;11.70;;;6.80;99.90;;;;;;5093834;28;20040;-93
2022/03/05 09:31:36;;;;;;;26.08;12.57;;;8.20;99.90;;;;;;5093713;28;20044;-91
2022/03/05 09:34:02;;;;;;;24.95;12.55;;;9.10;99.90;;;;;;5076644;28;20063;-93
2022/03/05 09:36:28;;;;;;;22.95;12.00;;;10.30;99.90;;;;;;5076305;28;20047;-93
2022/03/05 09:38:54;;;;;;;22.38;13.07;;;10.50;99.90;;;;;;5093650;28;20500;-92
2022/03/05 09:41:21;;;;;;;23.85;12.95;;;11.10;99.90;;;;;;5092688;28;20036;-93
2022/03/05 09:43:47;;;;;;;23.67;13.15;;;12.00;99.90;;;;;;5076217;28;20081;-93
2022/03/05 09:46:17;;;;;;;22.77;13.40;;;12.00;99.90;;;;;;5093712;28;20481;-92
2022/03/05 09:48:43;;;;;;;26.45;14.40;;;12.80;98.40;;;;;;5093467;28;20044;-92
2022/03/05 09:51:09;;;;;;;25.02;14.18;;;13.00;96.50;;;;;;5076564;28;20458;-93
2022/03/05 09:53:35;;;;;;;26.60;15.27;;;13.50;93.00;;;;;;5076186;28;20051;-93
2022/03/05 09:56:01;;;;;;;24.15;14.07;;;13.80;90.90;;;;;;5076064;28;20050;-93
2022/03/05 09:58:26;;;;;;;23.55;13.80;;;13.90;85.00;;;;;;5092994;28;20498;-94
2022/03/05 10:00:52;;;;;;;21.40;13.52;;;14.10;79.40;;;;;;5076310;28;20043;-92
2022/03/05 10:03:18;;;;;;;24.42;13.73;;;14.30;76.70;;;;;;5076246;28;20051;-93
2022/03/05 10:05:44;;;;;;;25.17;14.77;;;14.40;72.00;;;;;;5076189;28;20048;-92
2022/03/05 10:08:15;;;;;;;25.25;14.82;;;14.20;71.30;;;;;;5075916;28;20089;-93
2022/03/05 10:10:53;;;;;;;25.27;14.60;;;14.30;69.90;;;;;;5092607;28;20036;-91
2022/03/05 10:13:26;;;;;;;25.92;15.77;;;14.40;67.30;;;;;;5076303;28;20048;-93
2022/03/05 10:15:54;;;;;;;24.05;15.13;;;14.70;65.80;;;;;;5093752;28;20087;-92
2022/03/05 10:18:31;;;;;;;22.42;14.25;;;15.10;64.20;;;;;;5092778;28;20058;-93
2022/03/05 10:20:59;;;;;;;25.27;15.93;;;15.00;60.90;;;;;;5092280;28;20120;-93
2022/03/05 10:23:25;;;;;;;24.98;15.95;;;15.20;61.00;;;;;;5075766;28;20044;-91
2022/03/05 10:25:55;;;;;;;24.15;14.93;;;15.20;60.10;;;;;;5092573;28;20066;-93
2022/03/05 10:28:29;;;;;;;25.42;14.90;;;15.40;58.00;;;;;;5092625;28;20137;-91
2022/03/05 10:30:58;;;;;;;25.75;15.70;;;15.50;58.30;;;;;;5092409;28;20378;-92
2022/03/05 10:33:33;;;;;;;24.05;14.45;;;15.50;57.60;;;;;;5076007;28;20067;-92
2022/03/05 10:36:07;;;;;;;25.45;15.27;;;15.70;54.70;;;;;;5092402;28;20101;-93
2022/03/05 10:38:43;;;;;;;25.42;14.90;;;15.80;56.60;;;;;;5076002;28;20052;-92
2022/03/05 10:41:09;;;;;;;23.77;15.30;;;16.20;55.20;;;;;;5092262;28;20059;-93
2022/03/05 10:43:35;;;;;;;25.85;15.45;;;16.30;53.10;;;;;;5092444;28;20048;-92
2022/03/05 10:46:01;;;;;;;28.90;16.38;;;16.40;54.20;;;;;;5066313;28;20082;-92
2022/03/05 10:48:29;;;;;;;25.65;14.88;;;16.50;52.70;;;;;;5054727;28;20494;-92
2022/03/05 10:51:09;;;;;;;25.23;15.23;;;16.60;53.00;;;;;;5035287;28;20473;-92
2022/03/05 10:53:40;;;;;;;25.27;15.05;;;16.60;52.70;;;;;;5055947;28;20056;-92
2022/03/05 10:56:33;;;;;;;23.27;14.95;;;16.60;52.00;;;;;;5039212;28;20136;-92
2022/03/05 10:59:11;;;;;;;27.27;15.25;;;16.70;50.60;;;;;;5019538;28;20132;-93
2022/03/05 11:01:40;;;;;;;25.42;15.27;;;17.00;49.80;;;;;;5054019;28;20040;-93
2022/03/05 11:04:08;;;;;;;22.95;15.25;;;17.10;49.90;;;;;;5039737;28;20041;-93
2022/03/05 11:06:53;;;;;;;23.88;15.15;;;17.30;49.50;;;;;;5054725;28;20052;-93
2022/03/05 11:09:19;;;;;;;23.05;14.30;;;16.90;49.00;;;;;;5054868;28;20049;-92
2022/03/05 11:11:44;;;;;;;23.58;15.13;;;16.90;50.10;;;;;;5055373;28;20059;-92
2022/03/05 11:14:14;;;;;;;25.02;15.68;;;17.30;50.30;;;;;;5056456;28;20043;-92
2022/03/05 11:16:42;;;;;;;25.25;14.90;;;17.50;48.30;;;;;;5055151;28;20041;-92
2022/03/05 11:19:08;;;;;;;23.15;15.10;;;17.30;48.70;;;;;;5055785;28;20191;-93
2022/03/05 11:21:34;;;;;;;26.80;16.52;;;17.40;49.10;;;;;;5055522;28;20060;-94
2022/03/05 11:24:01;;;;;;;26.67;15.68;;;17.80;48.80;;;;;;5036371;28;20392;-93
2022/03/05 11:26:31;;;;;;;32.88;16.60;;;18.10;47.80;;;;;;5034886;28;20163;-93
2022/03/05 11:28:57;;;;;;;29.37;16.53;;;18.40;47.30;;;;;;5031780;28;20071;-95
2022/03/05 11:31:29;;;;;;;28.65;16.10;;;18.50;46.90;;;;;;5054773;28;20080;-92
2022/03/05 11:33:54;;;;;;;26.73;16.65;;;18.50;46.70;;;;;;5055284;28;20052;-94
2022/03/05 11:36:36;;;;;;;24.00;15.18;;;18.60;46.40;;;;;;5055315;28;20123;-94
2022/03/05 11:39:15;;;;;;;23.20;15.68;;;18.80;45.50;;;;;;5054743;28;20103;-95
2022/03/05 11:41:53;;;;;;;25.42;15.85;;;18.80;45.40;;;;;;5038870;28;20483;-95
2022/03/05 11:44:21;;;;;;;25.23;16.17;;;19.00;44.20;;;;;;5054954;28;20049;-94
2022/03/05 11:46:48;;;;;;;26.13;16.58;;;18.90;44.70;;;;;;5030427;28;20053;-92
2022/03/05 11:49:14;;;;;;;25.90;16.63;;;19.00;44.80;;;;;;5054898;28;20049;-95
2022/03/05 11:51:58;;;;;;;30.20;17.38;;;18.80;44.30;;;;;;5054538;28;20048;-94
2022/03/05 11:54:25;;;;;;;26.80;16.00;;;18.60;44.90;;;;;;5036046;28;20129;-93
2022/03/05 11:57:03;;;;;;;25.75;16.58;;;18.70;45.60;;;;;;5054947;28;20052;-94
2022/03/05 11:59:32;;;;;;;28.55;16.83;;;18.90;44.60;;;;;;5038159;28;20044;-93
2022/03/05 12:01:58;;;;;;;26.90;16.60;;;19.00;44.90;;;;;;5067062;28;20582;-93
2022/03/05 12:04:28;;;;;;;26.05;16.58;;;19.30;44.80;;;;;;5052006;28;20085;-94
2022/03/05 12:06:56;;;;;;;29.27;16.25;;;19.40;43.80;;;;;;5037058;28;20612;-93
2022/03/05 12:09:37;;;;;;;25.05;16.35;;;19.50;43.50;;;;;;5054852;28;20047;-93
2022/03/05 12:12:08;;;;;;;24.63;16.08;;;19.40;43.10;;;;;;5054794;28;20509;-94
2022/03/05 12:15:06;;;;;;;25.30;16.05;;;19.30;43.30;;;;;;5055062;28;20083;-94
2022/03/05 12:17:46;;;;;;;25.88;16.65;;;19.20;42.40;;;;;;5052751;28;20502;-94
2022/03/05 12:20:20;;;;;;;27.90;16.65;;;19.30;43.70;;;;;;5086268;28;20136;-94
2022/03/05 12:23:00;;;;;;;24.85;16.75;;;19.50;43.80;;;;;;5054285;28;20407;-94
2022/03/05 12:25:28;;;;;;;26.25;16.35;;;19.70;43.10;;;;;;5039727;28;20127;-94
2022/03/05 12:27:55;;;;;;;26.02;17.60;;;20.00;43.30;;;;;;5057646;28;20056;-94
2022/03/05 12:30:25;;;;;;;25.25;16.63;;;20.10;43.10;;;;;;5054231;28;20437;-94
2022/03/05 12:32:55;;;;;;;29.42;18.08;;;20.30;42.60;;;;;;5043287;28;20231;-95